Time;durP1;ratioP1;P1;durP2;ratioP2;P2;SDS_P1;SDS_P2;PMS_P1;PMS_P2;Temp;Humidity;BMP_temperature;BMP_pressure;BME280_temperature;BME280_humidity;BME280_pressure;Samples;Min_cycle;Max_cycle;Signal;HPM_P1;HPM_P2
2024/02/06 00:01:49;;;;;;;6.15;1.70;;;7.90;99.90;;;;;;5090001;28;20026;-63
2024/02/06 00:04:15;;;;;;;6.60;2.63;;;8.00;99.90;;;;;;5090529;28;20054;-63
2024/02/06 00:06:40;;;;;;;6.80;2.03;;;8.00;99.90;;;;;;5092113;28;20032;-64
2024/02/06 00:09:06;;;;;;;4.63;2.17;;;8.00;99.90;;;;;;5073232;28;20032;-63
2024/02/06 00:11:32;;;;;;;4.13;1.90;;;8.00;99.90;;;;;;5090245;28;20485;-63
2024/02/06 00:13:57;;;;;;;8.88;1.80;;;8.10;99.90;;;;;;5091814;28;20032;-63
2024/02/06 00:16:23;;;;;;;9.15;2.28;;;8.10;99.90;;;;;;5089039;28;20026;-62
2024/02/06 00:18:48;;;;;;;8.73;2.25;;;8.10;99.90;;;;;;5091075;28;20028;-63
2024/02/06 00:21:14;;;;;;;6.15;2.03;;;8.10;99.90;;;;;;5090490;28;20031;-63
2024/02/06 00:23:40;;;;;;;3.35;2.17;;;8.20;99.90;;;;;;5088824;28;20478;-62
2024/02/06 00:26:05;;;;;;;4.05;1.52;;;8.20;99.90;;;;;;5090985;28;20028;-63
2024/02/06 00:28:31;;;;;;;3.13;1.40;;;8.20;99.90;;;;;;5089504;28;20445;-63
2024/02/06 00:30:57;;;;;;;6.40;2.55;;;8.20;99.90;;;;;;5091250;28;20059;-63
2024/02/06 00:33:22;;;;;;;4.78;2.33;;;8.30;99.90;;;;;;5073491;28;20114;-63
2024/02/06 00:35:48;;;;;;;7.07;1.85;;;8.30;99.90;;;;;;5089882;28;20122;-63
2024/02/06 00:38:14;;;;;;;4.45;1.90;;;8.30;99.90;;;;;;5090473;28;20039;-63
2024/02/06 00:40:39;;;;;;;3.72;1.42;;;8.40;99.90;;;;;;5087693;28;20083;-63
2024/02/06 00:43:05;;;;;;;10.43;1.90;;;8.40;99.90;;;;;;5089928;28;20027;-63
2024/02/06 00:45:31;;;;;;;5.25;1.65;;;8.40;99.90;;;;;;5089050;28;20043;-63
2024/02/06 00:47:56;;;;;;;6.40;1.77;;;8.50;99.90;;;;;;5088426;28;20176;-64
2024/02/06 00:50:22;;;;;;;2.47;1.45;;;8.40;99.90;;;;;;5085156;28;20020;-62
2024/02/06 00:52:48;;;;;;;6.22;1.75;;;8.50;99.90;;;;;;5086421;28;20040;-62
2024/02/06 00:55:15;;;;;;;6.47;1.73;;;8.50;99.90;;;;;;5088732;28;20085;-64
2024/02/06 00:57:40;;;;;;;3.38;1.50;;;8.50;99.90;;;;;;5069960;28;20020;-63
2024/02/06 01:00:08;;;;;;;3.92;2.03;;;8.50;99.90;;;;;;5088199;28;20039;-63
2024/02/06 01:02:34;;;;;;;3.58;1.48;;;8.60;99.90;;;;;;5086719;28;20031;-63
2024/02/06 01:05:00;;;;;;;3.78;1.33;;;8.60;99.90;;;;;;5070180;28;20043;-64
2024/02/06 01:07:26;;;;;;;2.30;1.15;;;8.60;99.90;;;;;;5088630;28;20362;-61
2024/02/06 01:09:52;;;;;;;2.97;1.85;;;8.60;99.90;;;;;;5085466;28;20043;-63
2024/02/06 01:12:17;;;;;;;8.05;1.95;;;8.60;99.90;;;;;;5086964;28;20039;-64
2024/02/06 01:14:43;;;;;;;5.85;1.92;;;8.60;99.90;;;;;;5087106;28;20028;-64
2024/02/06 01:17:09;;;;;;;4.07;1.15;;;8.50;99.90;;;;;;5084532;28;20031;-64
2024/02/06 01:19:35;;;;;;;5.22;1.45;;;8.60;99.90;;;;;;5088888;28;20099;-64
2024/02/06 01:22:00;;;;;;;10.63;2.55;;;8.60;99.90;;;;;;5088306;28;20107;-63
2024/02/06 01:24:26;;;;;;;4.40;1.92;;;8.60;99.90;;;;;;5088148;28;20591;-64
2024/02/06 01:26:51;;;;;;;8.23;1.77;;;8.60;99.90;;;;;;5089483;28;20036;-64
2024/02/06 01:29:17;;;;;;;6.22;1.67;;;8.60;99.90;;;;;;5087669;28;20040;-64
2024/02/06 01:31:45;;;;;;;8.70;2.20;;;8.60;99.90;;;;;;5086118;28;20100;-64
2024/02/06 01:34:11;;;;;;;4.95;1.73;;;8.60;99.90;;;;;;5088612;28;20590;-64
2024/02/06 01:36:37;;;;;;;4.65;1.52;;;8.60;99.90;;;;;;5086125;28;20055;-63
2024/02/06 01:39:03;;;;;;;5.60;2.10;;;8.70;99.90;;;;;;5088058;28;20040;-63
2024/02/06 01:41:28;;;;;;;4.18;2.33;;;8.70;99.90;;;;;;5086417;28;20033;-63
2024/02/06 01:44:00;;;;;;;3.45;1.80;;;8.70;99.90;;;;;;5084695;28;20034;-64
2024/02/06 01:46:27;;;;;;;6.15;2.00;;;8.70;99.90;;;;;;5081755;28;20042;-64
2024/02/06 01:48:54;;;;;;;5.85;2.15;;;8.70;99.90;;;;;;5083986;28;20034;-64
2024/02/06 01:51:22;;;;;;;8.85;2.42;;;8.70;99.90;;;;;;5087584;28;20043;-64
2024/02/06 01:53:48;;;;;;;10.30;2.05;;;8.70;99.90;;;;;;5089326;28;20051;-64
2024/02/06 01:56:14;;;;;;;5.25;1.98;;;8.70;99.90;;;;;;5088719;28;20482;-64
2024/02/06 01:58:40;;;;;;;4.63;2.50;;;8.70;99.90;;;;;;5056722;28;20020;-64
2024/02/06 02:01:06;;;;;;;4.45;1.75;;;8.70;99.90;;;;;;5067242;28;20651;-63
2024/02/06 02:03:33;;;;;;;6.38;2.00;;;8.70;99.90;;;;;;5068913;28;20690;-63
2024/02/06 02:05:59;;;;;;;17.35;2.83;;;8.70;99.90;;;;;;5066940;28;20132;-64
2024/02/06 02:08:31;;;;;;;6.05;1.60;;;8.70;99.90;;;;;;5068009;28;20103;-64
2024/02/06 02:10:57;;;;;;;5.88;1.33;;;8.70;99.90;;;;;;5068541;28;20064;-64
2024/02/06 02:13:23;;;;;;;6.05;1.70;;;8.60;99.90;;;;;;5069229;28;20063;-64
2024/02/06 02:15:49;;;;;;;3.53;1.40;;;8.60;99.90;;;;;;5068721;28;20047;-64
2024/02/06 02:18:14;;;;;;;3.42;1.42;;;8.60;99.90;;;;;;5071205;28;20041;-64
2024/02/06 02:20:41;;;;;;;5.32;1.80;;;8.60;99.90;;;;;;5072446;28;20038;-64
2024/02/06 02:23:07;;;;;;;6.35;1.80;;;8.70;99.90;;;;;;5068842;28;20083;-64
2024/02/06 02:25:33;;;;;;;8.30;1.85;;;8.70;99.90;;;;;;5071743;28;20028;-64
2024/02/06 02:28:00;;;;;;;7.72;2.15;;;8.70;99.90;;;;;;5070703;28;20039;-63
2024/02/06 02:30:26;;;;;;;5.47;1.75;;;8.70;99.90;;;;;;5070739;28;20121;-64
2024/02/06 02:32:54;;;;;;;7.65;2.60;;;8.80;99.90;;;;;;5086356;28;20050;-64
2024/02/06 02:35:28;;;;;;;6.45;1.77;;;8.80;99.90;;;;;;5087800;28;20032;-64
2024/02/06 02:37:53;;;;;;;7.30;1.65;;;8.80;99.90;;;;;;5090925;28;20032;-63
2024/02/06 02:40:19;;;;;;;4.38;2.17;;;8.80;99.90;;;;;;5086799;28;20486;-63
2024/02/06 02:42:45;;;;;;;7.88;1.70;;;8.80;99.90;;;;;;5091844;28;20665;-62
2024/02/06 02:45:10;;;;;;;6.00;2.22;;;8.80;99.90;;;;;;5093056;28;20028;-64
2024/02/06 02:47:36;;;;;;;5.63;1.60;;;8.80;99.90;;;;;;5092585;28;20035;-63
2024/02/06 02:50:02;;;;;;;9.10;2.00;;;8.80;99.90;;;;;;5092073;28;20119;-64
2024/02/06 02:52:27;;;;;;;5.03;1.70;;;8.80;99.90;;;;;;5090235;28;20043;-64
2024/02/06 02:54:53;;;;;;;5.72;1.70;;;8.80;99.90;;;;;;5073021;28;20497;-64
2024/02/06 02:57:19;;;;;;;8.25;1.90;;;8.80;99.90;;;;;;5089622;28;20156;-64
2024/02/06 02:59:44;;;;;;;6.20;1.83;;;8.80;99.90;;;;;;5090974;28;20025;-65
2024/02/06 03:02:10;;;;;;;4.13;1.67;;;8.80;99.90;;;;;;5092045;28;20050;-64
2024/02/06 03:04:35;;;;;;;8.65;2.13;;;8.80;99.90;;;;;;5072473;28;20034;-62
2024/02/06 03:07:01;;;;;;;4.97;2.78;;;8.80;99.90;;;;;;5089814;28;20020;-62
2024/02/06 03:09:27;;;;;;;5.40;1.38;;;8.80;99.90;;;;;;5062755;28;20034;-63
2024/02/06 03:11:53;;;;;;;6.43;2.00;;;8.80;99.90;;;;;;5087996;28;20178;-62
2024/02/06 03:14:18;;;;;;;8.18;2.17;;;8.80;99.90;;;;;;5087847;28;20016;-63
2024/02/06 03:16:44;;;;;;;13.40;2.05;;;8.80;99.90;;;;;;5090549;28;20038;-63
2024/02/06 03:19:10;;;;;;;8.70;1.95;;;8.80;99.90;;;;;;5090835;28;20427;-62
2024/02/06 03:21:35;;;;;;;7.35;2.30;;;8.80;99.90;;;;;;5085683;28;20051;-62
2024/02/06 03:24:01;;;;;;;11.23;1.83;;;8.80;99.90;;;;;;5089718;28;20095;-63
2024/02/06 03:26:26;;;;;;;4.75;1.60;;;8.80;99.90;;;;;;5073388;28;20028;-62
2024/02/06 03:28:52;;;;;;;4.55;1.48;;;8.80;99.90;;;;;;5088910;28;20038;-63
2024/02/06 03:31:18;;;;;;;6.35;2.03;;;8.80;99.90;;;;;;5093287;28;20044;-63
2024/02/06 03:33:43;;;;;;;13.60;2.00;;;8.80;99.90;;;;;;5086405;28;20150;-62
2024/02/06 03:36:09;;;;;;;6.40;2.08;;;8.80;99.90;;;;;;5082666;28;20082;-63
2024/02/06 03:38:34;;;;;;;5.78;1.67;;;8.80;99.90;;;;;;5083927;28;20122;-63
2024/02/06 03:41:00;;;;;;;8.77;1.77;;;8.90;99.90;;;;;;5082150;28;20449;-62
2024/02/06 03:43:25;;;;;;;3.13;1.40;;;8.90;99.90;;;;;;5083312;28;20020;-63
2024/02/06 03:45:51;;;;;;;7.97;1.70;;;8.90;99.90;;;;;;5080418;28;20068;-63
2024/02/06 03:48:17;;;;;;;8.93;2.20;;;8.90;99.90;;;;;;5091430;28;20020;-65
2024/02/06 03:50:42;;;;;;;5.32;1.30;;;8.80;99.90;;;;;;5090550;28;20108;-62
2024/02/06 03:53:08;;;;;;;3.42;1.52;;;8.80;99.90;;;;;;5088354;28;20020;-63
2024/02/06 03:55:34;;;;;;;7.28;1.60;;;8.90;99.90;;;;;;5086921;28;20032;-62
2024/02/06 03:57:59;;;;;;;9.55;2.25;;;8.80;99.90;;;;;;5089610;28;20050;-63
2024/02/06 04:00:25;;;;;;;7.28;1.67;;;8.90;99.90;;;;;;5069557;28;20024;-62
2024/02/06 04:02:51;;;;;;;5.18;1.60;;;8.90;99.90;;;;;;5081299;28;20113;-61
2024/02/06 04:05:16;;;;;;;8.82;1.70;;;8.90;99.90;;;;;;5083673;28;20027;-61
2024/02/06 04:07:42;;;;;;;7.38;1.90;;;8.90;99.90;;;;;;5082877;28;20085;-61
2024/02/06 04:10:08;;;;;;;5.65;1.52;;;8.90;99.90;;;;;;5082717;28;20043;-62
2024/02/06 04:12:34;;;;;;;6.55;2.00;;;8.90;99.90;;;;;;5090657;28;20028;-61
2024/02/06 04:14:59;;;;;;;6.68;1.67;;;8.90;99.90;;;;;;5090851;28;20383;-62
2024/02/06 04:17:25;;;;;;;9.10;2.05;;;8.90;99.90;;;;;;5088465;28;20024;-61
2024/02/06 04:19:50;;;;;;;7.78;1.98;;;8.90;99.90;;;;;;5088223;28;20421;-62
2024/02/06 04:22:16;;;;;;;7.80;2.80;;;8.90;99.90;;;;;;5090481;28;20107;-62
2024/02/06 04:24:41;;;;;;;6.03;2.75;;;8.90;99.90;;;;;;5084792;28;20020;-62
2024/02/06 04:27:07;;;;;;;7.65;2.40;;;8.90;99.90;;;;;;5084332;28;21875;-62
2024/02/06 04:29:34;;;;;;;7.53;1.77;;;8.90;99.90;;;;;;5083982;28;20047;-63
2024/02/06 04:32:00;;;;;;;7.07;1.65;;;8.80;99.90;;;;;;5083648;28;20024;-62
2024/02/06 04:34:27;;;;;;;6.55;2.08;;;8.80;99.90;;;;;;5083478;28;20082;-62
2024/02/06 04:36:53;;;;;;;9.60;2.33;;;8.80;99.90;;;;;;5082905;28;20032;-61
2024/02/06 04:39:19;;;;;;;6.20;1.58;;;8.80;99.90;;;;;;5084153;28;20770;-61
2024/02/06 04:41:44;;;;;;;6.55;1.35;;;8.90;99.90;;;;;;5084372;28;20420;-62
2024/02/06 04:44:10;;;;;;;12.35;2.30;;;8.80;99.90;;;;;;5081761;28;20082;-62
2024/02/06 04:46:36;;;;;;;4.18;1.60;;;8.80;99.90;;;;;;5084016;28;20032;-63
2024/02/06 04:49:01;;;;;;;11.63;2.45;;;8.80;99.90;;;;;;5083928;28;20028;-62
2024/02/06 04:51:27;;;;;;;7.55;1.55;;;8.90;99.90;;;;;;5084492;28;20080;-61
2024/02/06 04:53:53;;;;;;;7.38;2.17;;;9.00;99.90;;;;;;5084282;28;20574;-61
2024/02/06 04:56:22;;;;;;;2.38;1.70;;;9.00;99.90;;;;;;5090688;28;20031;-60
2024/02/06 04:58:49;;;;;;;8.98;1.98;;;9.00;99.90;;;;;;5087819;28;20362;-62
2024/02/06 05:01:15;;;;;;;9.23;2.03;;;9.00;99.90;;;;;;5090072;28;20492;-62
2024/02/06 05:03:41;;;;;;;6.30;1.90;;;9.00;99.90;;;;;;5088926;28;20027;-62
2024/02/06 05:06:07;;;;;;;5.38;1.63;;;9.00;99.90;;;;;;5089749;28;20117;-62
2024/02/06 05:08:32;;;;;;;5.70;1.85;;;9.00;99.90;;;;;;5088352;28;20029;-62
2024/02/06 05:10:58;;;;;;;5.07;1.60;;;9.00;99.90;;;;;;5088950;28;20056;-62
2024/02/06 05:13:23;;;;;;;9.88;2.17;;;8.90;99.90;;;;;;5086535;28;20028;-62
2024/02/06 05:15:49;;;;;;;12.23;1.55;;;9.00;99.90;;;;;;5089138;28;20043;-63
2024/02/06 05:18:15;;;;;;;8.25;1.80;;;9.00;99.90;;;;;;5090655;28;20130;-62
2024/02/06 05:20:40;;;;;;;6.93;1.85;;;9.00;99.90;;;;;;5041866;28;20082;-61
2024/02/06 05:23:06;;;;;;;8.82;1.48;;;9.00;99.90;;;;;;5046026;28;20054;-61
2024/02/06 05:25:31;;;;;;;8.43;1.23;;;9.00;99.90;;;;;;5050417;28;20091;-61
2024/02/06 05:27:58;;;;;;;7.47;2.28;;;9.10;99.90;;;;;;5043935;28;20149;-62
2024/02/06 05:30:24;;;;;;;6.35;1.85;;;9.10;99.90;;;;;;5036029;28;20033;-61
2024/02/06 05:32:49;;;;;;;3.75;1.40;;;9.10;99.90;;;;;;5045492;28;20048;-62
2024/02/06 05:35:15;;;;;;;6.88;1.48;;;9.20;99.90;;;;;;5052027;28;20040;-61
2024/02/06 05:37:41;;;;;;;4.25;1.50;;;9.20;99.90;;;;;;5053604;28;20072;-62
2024/02/06 05:40:11;;;;;;;5.03;1.73;;;9.10;99.90;;;;;;5051442;28;20017;-61
2024/02/06 05:42:37;;;;;;;7.05;2.78;;;9.10;99.90;;;;;;5046652;28;20431;-61
2024/02/06 05:45:04;;;;;;;8.50;1.45;;;9.10;99.90;;;;;;5046718;28;20031;-62
2024/02/06 05:47:30;;;;;;;10.23;1.48;;;9.10;99.90;;;;;;5051056;28;20663;-59
2024/02/06 05:49:55;;;;;;;13.00;1.92;;;9.10;99.90;;;;;;5048884;28;20041;-61
2024/02/06 05:52:21;;;;;;;10.90;1.67;;;9.10;99.90;;;;;;5063061;28;20077;-61
2024/02/06 05:54:47;;;;;;;11.52;2.28;;;9.20;99.90;;;;;;5089129;28;20028;-60
2024/02/06 05:57:12;;;;;;;7.75;1.55;;;9.20;99.90;;;;;;5088085;28;20027;-60
2024/02/06 05:59:39;;;;;;;4.18;1.60;;;9.10;99.90;;;;;;5082921;28;20032;-63
2024/02/06 06:02:05;;;;;;;5.75;1.55;;;9.10;99.90;;;;;;5082837;28;20081;-62
2024/02/06 06:04:31;;;;;;;4.13;1.50;;;9.20;99.90;;;;;;5082460;28;20024;-61
2024/02/06 06:06:56;;;;;;;5.53;1.50;;;9.10;99.90;;;;;;5083706;28;20049;-62
2024/02/06 06:09:22;;;;;;;10.20;1.52;;;9.20;99.90;;;;;;5091149;28;20024;-62
2024/02/06 06:11:48;;;;;;;10.02;1.77;;;9.20;99.90;;;;;;5035467;28;20538;-62
2024/02/06 06:14:13;;;;;;;3.75;1.27;;;9.20;99.90;;;;;;5076369;28;20035;-63
2024/02/06 06:16:39;;;;;;;11.77;2.15;;;9.10;99.90;;;;;;5083114;28;20283;-62
2024/02/06 06:19:04;;;;;;;8.48;2.10;;;9.10;99.90;;;;;;5082483;28;20109;-63
2024/02/06 06:21:30;;;;;;;6.25;1.25;;;9.20;99.90;;;;;;5085274;28;20474;-62
2024/02/06 06:23:56;;;;;;;6.80;1.80;;;9.10;99.90;;;;;;5086066;28;20023;-63
2024/02/06 06:26:21;;;;;;;8.43;1.58;;;9.10;99.90;;;;;;5081754;28;20394;-63
2024/02/06 06:28:47;;;;;;;7.63;2.33;;;9.20;99.90;;;;;;5084365;28;20069;-62
2024/02/06 06:31:12;;;;;;;7.82;1.55;;;9.20;99.90;;;;;;5083932;28;20095;-62
2024/02/06 06:33:38;;;;;;;6.00;1.00;;;9.20;99.90;;;;;;5089426;28;20081;-62
2024/02/06 06:36:03;;;;;;;11.23;1.45;;;9.20;99.90;;;;;;5088598;28;20525;-62
2024/02/06 06:38:29;;;;;;;7.70;3.15;;;9.20;99.90;;;;;;5071831;28;20040;-62
2024/02/06 06:40:55;;;;;;;6.35;2.00;;;9.20;99.90;;;;;;5084870;28;20051;-62
2024/02/06 06:43:20;;;;;;;8.00;1.65;;;9.20;99.90;;;;;;5087250;28;20652;-62
2024/02/06 06:45:46;;;;;;;5.68;1.50;;;9.20;99.90;;;;;;5089614;28;20024;-62
2024/02/06 06:48:11;;;;;;;4.22;1.40;;;9.20;99.90;;;;;;5089074;28;20508;-62
2024/02/06 06:50:37;;;;;;;6.22;2.22;;;9.10;99.90;;;;;;5086955;28;20420;-63
2024/02/06 06:53:03;;;;;;;9.88;2.65;;;9.10;99.90;;;;;;5086311;28;20032;-62
2024/02/06 06:55:28;;;;;;;10.88;2.53;;;9.20;99.90;;;;;;5088016;28;20377;-63
2024/02/06 06:57:54;;;;;;;8.63;2.67;;;9.20;99.90;;;;;;5088883;28;20043;-62
2024/02/06 07:00:20;;;;;;;3.88;1.95;;;9.10;99.90;;;;;;5087383;28;20027;-62
2024/02/06 07:02:46;;;;;;;5.43;1.85;;;9.20;99.90;;;;;;5087661;28;20077;-63
2024/02/06 07:05:11;;;;;;;4.40;1.90;;;9.20;99.90;;;;;;5085642;28;20028;-63
2024/02/06 07:07:38;;;;;;;5.80;2.22;;;9.20;99.90;;;;;;5057941;28;20052;-63
2024/02/06 07:10:04;;;;;;;4.55;1.63;;;9.20;99.90;;;;;;5088443;28;20080;-63
2024/02/06 07:12:30;;;;;;;5.70;1.77;;;9.30;99.90;;;;;;5088441;28;20043;-63
2024/02/06 07:14:56;;;;;;;9.23;1.75;;;9.30;99.90;;;;;;5087802;28;20035;-63
2024/02/06 07:17:21;;;;;;;4.45;2.20;;;9.30;99.90;;;;;;5088566;28;20385;-63
2024/02/06 07:19:47;;;;;;;11.18;2.72;;;9.30;99.90;;;;;;5088275;28;20030;-63
2024/02/06 07:22:13;;;;;;;8.68;2.60;;;9.30;99.90;;;;;;5092475;28;20377;-63
2024/02/06 07:24:39;;;;;;;7.18;1.90;;;9.20;99.90;;;;;;5090908;28;20056;-63
2024/02/06 07:27:05;;;;;;;8.13;1.92;;;9.30;99.90;;;;;;5091507;28;20031;-62
2024/02/06 07:29:31;;;;;;;11.88;2.17;;;9.30;99.90;;;;;;5092084;28;20050;-63
2024/02/06 07:31:57;;;;;;;12.00;3.63;;;9.30;99.90;;;;;;5090541;28;20059;-63
2024/02/06 07:34:22;;;;;;;10.82;2.45;;;9.30;99.90;;;;;;5092055;28;20034;-63
2024/02/06 07:36:48;;;;;;;8.32;2.80;;;9.30;99.90;;;;;;5092697;28;20028;-63
2024/02/06 07:39:14;;;;;;;7.43;3.05;;;9.30;99.90;;;;;;5072981;28;20135;-63
2024/02/06 07:41:40;;;;;;;17.67;2.80;;;9.40;99.90;;;;;;5091761;28;20081;-63
2024/02/06 07:44:05;;;;;;;10.55;2.13;;;9.40;99.90;;;;;;5090913;28;20028;-63
2024/02/06 07:46:31;;;;;;;10.18;2.03;;;9.40;99.90;;;;;;5091936;28;20028;-63
2024/02/06 07:48:57;;;;;;;7.03;2.30;;;9.50;99.90;;;;;;5089169;28;20036;-63
2024/02/06 07:51:23;;;;;;;12.50;2.78;;;9.40;99.90;;;;;;5090455;28;20081;-64
2024/02/06 07:53:53;;;;;;;9.25;3.28;;;9.50;99.90;;;;;;5088508;28;20027;-62
2024/02/06 07:56:19;;;;;;;13.18;4.03;;;9.50;99.90;;;;;;5091618;28;20028;-62
2024/02/06 07:58:48;;;;;;;8.60;3.22;;;9.50;99.90;;;;;;5088574;28;20027;-63
2024/02/06 08:01:14;;;;;;;10.43;2.95;;;9.50;99.90;;;;;;5092320;28;20028;-63
2024/02/06 08:03:40;;;;;;;10.00;2.72;;;9.50;99.90;;;;;;5089789;28;20086;-63
2024/02/06 08:06:06;;;;;;;8.13;2.15;;;9.50;99.90;;;;;;5088692;28;20486;-63
2024/02/06 08:08:31;;;;;;;10.65;2.75;;;9.50;99.90;;;;;;5088078;28;20043;-63
2024/02/06 08:10:57;;;;;;;8.75;2.78;;;9.50;99.90;;;;;;5088636;28;20028;-63
2024/02/06 08:13:23;;;;;;;8.38;2.45;;;9.50;99.90;;;;;;5084031;28;20603;-62
2024/02/06 08:15:49;;;;;;;6.97;2.25;;;9.50;99.90;;;;;;5090864;28;20020;-63
2024/02/06 08:18:15;;;;;;;7.25;2.20;;;9.60;99.90;;;;;;5090346;28;20563;-62
2024/02/06 08:20:41;;;;;;;10.10;2.78;;;9.50;99.90;;;;;;5091033;28;20016;-63
2024/02/06 08:23:07;;;;;;;14.55;3.15;;;9.60;99.90;;;;;;5090493;28;20106;-62
2024/02/06 08:25:33;;;;;;;8.93;2.95;;;9.60;99.90;;;;;;5089134;28;20043;-63
2024/02/06 08:27:59;;;;;;;12.18;3.10;;;9.60;99.90;;;;;;5090856;28;20028;-63
2024/02/06 08:30:24;;;;;;;5.78;2.35;;;9.60;99.90;;;;;;5085165;28;20039;-63
2024/02/06 08:32:50;;;;;;;14.32;3.28;;;9.60;99.90;;;;;;5089893;28;20031;-63
2024/02/06 08:35:16;;;;;;;8.82;2.55;;;9.60;99.90;;;;;;5089610;28;20098;-62
2024/02/06 08:37:41;;;;;;;12.77;3.92;;;9.60;99.90;;;;;;5072899;28;20373;-63
2024/02/06 08:40:07;;;;;;;7.55;2.50;;;9.60;99.90;;;;;;5090669;28;20020;-63
2024/02/06 08:42:35;;;;;;;11.55;3.78;;;9.70;99.90;;;;;;5088391;28;20435;-63
2024/02/06 08:45:00;;;;;;;20.08;6.20;;;9.70;99.90;;;;;;5089748;28;20063;-63
2024/02/06 08:47:27;;;;;;;12.40;3.67;;;9.70;99.90;;;;;;5089194;28;20059;-63
2024/02/06 08:49:53;;;;;;;6.75;2.28;;;9.70;99.90;;;;;;5090677;28;20031;-62
2024/02/06 08:52:18;;;;;;;5.93;2.22;;;9.80;99.90;;;;;;5088439;28;20024;-63
2024/02/06 08:54:44;;;;;;;5.20;2.17;;;9.80;99.90;;;;;;5089089;28;20409;-63
2024/02/06 08:57:10;;;;;;;12.43;3.83;;;9.80;99.90;;;;;;5090328;28;20089;-63
2024/02/06 08:59:35;;;;;;;7.30;3.22;;;9.80;99.90;;;;;;5089904;28;20432;-62
2024/02/06 09:02:02;;;;;;;11.73;2.50;;;9.80;99.90;;;;;;5089800;28;20441;-63
2024/02/06 09:04:31;;;;;;;13.30;3.33;;;9.90;99.90;;;;;;5089266;28;20041;-63
2024/02/06 09:06:58;;;;;;;6.78;2.20;;;9.90;99.90;;;;;;5084959;28;20051;-62
2024/02/06 09:09:24;;;;;;;9.02;3.50;;;9.80;99.90;;;;;;5083016;28;20023;-62
2024/02/06 09:11:51;;;;;;;11.68;2.80;;;9.80;99.90;;;;;;5090868;28;20032;-63
2024/02/06 09:14:16;;;;;;;8.80;2.75;;;9.80;99.90;;;;;;5089702;28;20069;-63
2024/02/06 09:16:42;;;;;;;5.03;1.92;;;9.80;99.90;;;;;;5089995;28;20470;-63
2024/02/06 09:19:08;;;;;;;8.77;2.50;;;9.80;99.90;;;;;;5089113;28;20112;-63
2024/02/06 09:21:34;;;;;;;8.60;2.33;;;9.80;99.90;;;;;;5087964;28;20027;-63
2024/02/06 09:24:00;;;;;;;8.15;2.58;;;9.80;99.90;;;;;;5086754;28;20429;-63
2024/02/06 09:26:26;;;;;;;8.15;2.15;;;9.80;99.90;;;;;;5089884;28;20032;-62
2024/02/06 09:28:51;;;;;;;13.38;3.05;;;9.80;99.90;;;;;;5089840;28;20028;-63
2024/02/06 09:31:17;;;;;;;8.90;2.60;;;9.90;99.90;;;;;;5089637;28;20028;-63
2024/02/06 09:33:43;;;;;;;19.45;3.50;;;9.90;99.90;;;;;;5088348;28;20035;-63
2024/02/06 09:36:09;;;;;;;13.65;4.60;;;9.90;99.90;;;;;;5088776;28;20032;-63
2024/02/06 09:38:35;;;;;;;13.32;2.72;;;10.00;99.90;;;;;;5076275;28;20093;-63
2024/02/06 09:41:01;;;;;;;10.85;3.63;;;10.00;99.90;;;;;;5090189;28;20024;-63
2024/02/06 09:43:27;;;;;;;7.90;3.00;;;10.00;99.90;;;;;;5087109;28;20030;-63
2024/02/06 09:45:54;;;;;;;14.75;3.20;;;10.00;99.90;;;;;;5087278;28;20486;-62
2024/02/06 09:48:24;;;;;;;8.57;2.38;;;10.00;99.90;;;;;;5088863;28;20371;-63
2024/02/06 09:50:56;;;;;;;6.70;2.22;;;10.00;99.90;;;;;;5087349;28;20036;-63
2024/02/06 09:53:25;;;;;;;9.03;2.30;;;10.00;99.90;;;;;;5079074;28;20036;-64
2024/02/06 09:55:51;;;;;;;8.43;2.40;;;10.00;99.90;;;;;;5089134;28;20043;-63
2024/02/06 09:58:18;;;;;;;10.07;2.72;;;10.00;99.90;;;;;;5068675;28;20063;-62
2024/02/06 10:00:45;;;;;;;4.00;2.05;;;10.00;99.90;;;;;;5086963;28;20020;-64
2024/02/06 10:03:16;;;;;;;6.25;2.53;;;10.00;99.90;;;;;;5089219;28;20405;-63
2024/02/06 10:05:43;;;;;;;6.13;1.50;;;10.00;99.90;;;;;;5088335;28;20448;-63
2024/02/06 10:08:12;;;;;;;7.55;1.50;;;10.00;99.90;;;;;;5085073;28;20077;-63
2024/02/06 10:10:41;;;;;;;6.57;2.30;;;10.00;99.90;;;;;;5089290;28;20028;-63
2024/02/06 10:13:07;;;;;;;8.85;1.95;;;10.00;99.90;;;;;;5087460;28;20107;-63
2024/02/06 10:15:33;;;;;;;4.63;2.03;;;10.00;99.90;;;;;;5089917;28;20153;-63
2024/02/06 10:18:00;;;;;;;5.32;1.90;;;10.00;99.90;;;;;;5088332;28;20032;-63
2024/02/06 10:20:25;;;;;;;10.40;2.28;;;10.00;99.90;;;;;;5089701;28;20073;-62
2024/02/06 10:22:51;;;;;;;8.13;3.13;;;10.00;99.90;;;;;;5088379;28;20039;-63
2024/02/06 10:25:18;;;;;;;6.18;2.40;;;10.00;99.90;;;;;;5088581;28;20036;-62
2024/02/06 10:27:43;;;;;;;8.63;2.78;;;10.00;99.90;;;;;;5087589;28;20028;-63
2024/02/06 10:30:12;;;;;;;7.95;3.00;;;9.90;99.90;;;;;;5086749;28;20036;-63
2024/02/06 10:32:38;;;;;;;6.75;2.35;;;10.00;99.90;;;;;;5087397;28;20043;-63
2024/02/06 10:35:08;;;;;;;17.65;3.08;;;10.00;99.90;;;;;;5084414;28;20137;-63
2024/02/06 10:37:41;;;;;;;7.45;2.30;;;10.00;99.90;;;;;;5071599;28;20019;-63
2024/02/06 10:40:11;;;;;;;9.70;2.77;;;10.00;99.90;;;;;;5070519;28;20536;-63
2024/02/06 10:42:39;;;;;;;8.20;2.75;;;10.00;99.90;;;;;;5082251;28;21058;-62
2024/02/06 10:45:05;;;;;;;9.05;2.78;;;10.10;99.90;;;;;;5081896;28;20161;-63
2024/02/06 10:47:31;;;;;;;11.15;2.83;;;10.00;99.90;;;;;;5088106;28;20108;-62
2024/02/06 10:50:15;;;;;;;9.13;3.05;;;10.00;99.90;;;;;;5088009;28;20016;-62
2024/02/06 10:52:40;;;;;;;10.00;2.90;;;10.00;99.90;;;;;;5088074;28;20051;-62
2024/02/06 10:55:07;;;;;;;8.73;3.05;;;10.10;99.90;;;;;;5090832;28;20120;-63
2024/02/06 10:57:36;;;;;;;9.35;3.35;;;10.10;99.90;;;;;;5089709;28;20020;-63
2024/02/06 11:00:12;;;;;;;14.45;4.40;;;10.10;99.90;;;;;;5090785;28;20592;-63
2024/02/06 11:02:41;;;;;;;8.18;3.47;;;10.10;99.90;;;;;;5091921;28;20023;-62
2024/02/06 11:05:24;;;;;;;7.97;2.70;;;10.20;99.90;;;;;;5072113;28;20493;-63
2024/02/06 11:07:50;;;;;;;11.85;3.58;;;10.20;99.90;;;;;;5090681;28;20054;-62
2024/02/06 11:10:19;;;;;;;11.07;3.33;;;10.20;99.90;;;;;;5088850;28;20462;-61
2024/02/06 11:12:46;;;;;;;25.60;8.48;;;10.20;99.90;;;;;;5092677;28;20036;-63
2024/02/06 11:15:15;;;;;;;14.77;6.65;;;10.20;99.90;;;;;;5091137;28;20390;-63
2024/02/06 11:17:42;;;;;;;75.05;24.50;;;10.20;99.90;;;;;;5093447;28;20020;-62
2024/02/06 11:20:13;;;;;;;29.95;11.95;;;10.20;99.90;;;;;;5091239;28;20537;-63
2024/02/06 11:22:41;;;;;;;9.77;3.28;;;10.20;99.90;;;;;;5092337;28;20073;-62
2024/02/06 11:25:16;;;;;;;8.68;3.65;;;10.20;99.90;;;;;;5090988;28;20034;-63
2024/02/06 11:27:44;;;;;;;11.30;4.38;;;10.20;99.90;;;;;;5089766;28;20032;-62
2024/02/06 11:30:11;;;;;;;11.05;4.18;;;10.20;99.90;;;;;;5089642;28;20231;-63
2024/02/06 11:32:37;;;;;;;8.70;2.92;;;10.30;99.90;;;;;;5086207;28;20024;-62
2024/02/06 11:35:02;;;;;;;11.23;4.40;;;10.40;99.90;;;;;;5087584;28;20036;-63
2024/02/06 11:37:30;;;;;;;24.55;7.90;;;10.40;99.90;;;;;;5073037;28;20036;-63
2024/02/06 11:40:10;;;;;;;26.67;8.20;;;10.50;99.90;;;;;;5079512;28;20044;-62
2024/02/06 11:42:37;;;;;;;24.33;11.43;;;10.50;99.90;;;;;;5079207;28;20745;-62
2024/02/06 11:45:09;;;;;;;11.30;4.00;;;10.50;99.90;;;;;;5082792;28;20036;-63
2024/02/06 11:47:36;;;;;;;15.18;5.70;;;10.40;99.90;;;;;;5087294;28;20064;-63
2024/02/06 11:50:45;;;;;;;12.75;7.00;;;10.40;99.90;;;;;;5086551;28;20031;-63
2024/02/06 11:53:15;;;;;;;10.65;4.72;;;10.40;99.90;;;;;;5084756;28;20039;-63
2024/02/06 11:55:42;;;;;;;10.23;2.78;;;10.50;99.90;;;;;;5089725;28;20059;-62
2024/02/06 11:58:08;;;;;;;7.68;3.55;;;10.50;99.90;;;;;;5089882;28;20016;-62
2024/02/06 12:00:35;;;;;;;6.43;3.17;;;10.50;99.90;;;;;;5088041;28;20394;-63
2024/02/06 12:03:00;;;;;;;43.85;14.05;;;10.40;99.90;;;;;;5087822;28;20051;-63
2024/02/06 12:05:26;;;;;;;40.38;15.75;;;10.40;99.90;;;;;;5069865;28;20466;-63
2024/02/06 12:07:58;;;;;;;14.23;4.57;;;10.40;99.90;;;;;;5083883;28;20031;-62
2024/02/06 12:10:25;;;;;;;10.10;3.75;;;10.40;99.90;;;;;;5086492;28;20032;-62
2024/02/06 12:12:55;;;;;;;28.77;9.25;;;10.40;99.90;;;;;;5087680;28;20270;-62
2024/02/06 12:15:22;;;;;;;9.00;4.00;;;10.40;99.90;;;;;;5090032;28;20032;-62
2024/02/06 12:17:48;;;;;;;23.42;8.98;;;10.40;99.90;;;;;;5088045;28;20585;-62
2024/02/06 12:20:19;;;;;;;21.85;7.43;;;10.50;99.90;;;;;;5088849;28;20046;-63
2024/02/06 12:23:07;;;;;;;13.50;4.57;;;10.50;99.90;;;;;;5091414;28;20028;-63
2024/02/06 12:25:38;;;;;;;9.23;4.15;;;10.50;99.90;;;;;;5071280;28;20027;-62
2024/02/06 12:28:12;;;;;;;13.13;4.25;;;10.50;99.90;;;;;;5088407;28;20056;-63
2024/02/06 12:30:38;;;;;;;;;;;10.50;99.90;;;;;;5089902;28;20024;-63
2024/02/06 12:33:04;;;;;;;18.80;6.55;;;10.60;99.90;;;;;;5090709;28;19908;-63
2024/02/06 12:35:36;;;;;;;15.20;5.93;;;10.60;99.90;;;;;;5086943;28;20473;-63
2024/02/06 12:38:03;;;;;;;31.38;10.02;;;10.60;99.90;;;;;;5090222;28;20428;-62
2024/02/06 12:40:33;;;;;;;35.03;12.98;;;10.60;99.90;;;;;;5070117;28;20040;-63
2024/02/06 12:43:03;;;;;;;16.10;7.00;;;10.60;99.90;;;;;;5088048;28;20486;-63
2024/02/06 12:45:29;;;;;;;21.05;7.50;;;10.60;99.90;;;;;;5081434;28;20051;-63
2024/02/06 12:47:58;;;;;;;18.95;5.82;;;10.60;99.90;;;;;;5090402;28;20490;-63
2024/02/06 12:50:24;;;;;;;12.95;4.22;;;10.60;99.90;;;;;;5089381;28;20127;-63